Ocean Giant — WDG4379 — position and weather

sailwx.info

Track history (hours):
 
Tides and Currents Weather Stations Pressure Air Temp Water Temp Dewpoint Dewpoint Depression Visibility Wind Speed Wind Dir Waves Ship Positions

Ocean Giant

Owner: Crowley Technical Management, Inc., Jacksonville, FL. More information available from US FCC via Universal Licensing System and Coast Guard Vessel Documentation Center.

Last reported at 2016-Jul-27 14:31 UTC. Time now 2016-Jul-27 15:19 UTC.
Position N 35°53' E 014°46'.

Length 166 m; draft 6.8 m.

Type: Cargo ship. MMSI: 367535950.

Date/timePositionNaut miles runAvg speedWind from/ knotsBaromVisibWave heightAir tempDewpointWater temp
2016-Jul-27 14:31N 35°53' E 014°46'0 0.0
2016-Jul-27 13:31N 35°53' E 014°46'0 0.0
2016-Jul-27 12:31N 35°53' E 014°46'0 0.0
2016-Jul-27 11:31N 35°53' E 014°46'0 0.0
2016-Jul-27 10:31N 35°53' E 014°46'0 0.0
2016-Jul-27 09:31N 35°53' E 014°46'0 0.0
2016-Jul-27 08:31N 35°53' E 014°46'0 0.0
2016-Jul-27 07:31N 35°53' E 014°46'2 2.5
2016-Jul-27 06:33N 35°54' E 014°49'2 0.3
2016-Jul-27 01:11N 35°54' E 014°51'0 0.0
2016-Jul-27 00:32N 35°54' E 014°51'0 0.0
2016-Jul-26 23:32N 35°54' E 014°51'0 0.0
2016-Jul-26 22:29N 35°54' E 014°51'0 0.0
2016-Jul-26 21:32N 35°54' E 014°51'0 0.0
2016-Jul-26 20:32N 35°54' E 014°51'0 0.0
2016-Jul-26 18:11N 35°54' E 014°51'0 0.0
2016-Jul-26 17:23N 35°54' E 014°51'0 0.0
2016-Jul-26 16:29N 35°54' E 014°51'0 0.0
2016-Jul-26 15:32N 35°54' E 014°51'0 0.1
2016-Jul-26 14:32N 35°54' E 014°51'5 5.1
2016-Jul-26 13:33N 35°49' E 014°52'6 6.2
2016-Jul-26 12:33N 35°50' E 014°59'1515.2
2016-Jul-26 11:33N 36°04' E 015°04'404 9.4
2016-Jul-24 16:32N 36°38' E 023°24'1212.6
2016-Jul-24 15:34N 36°49' E 023°32'1512.5
2016-Jul-24 14:24N 37°01' E 023°41'1112.7
2016-Jul-24 13:33N 37°10' E 023°48'6912.5
2016-Jul-24 08:05N 38°02' E 024°45'  
Track history (hours):
 
Tides and Currents Weather Stations Pressure Air Temp Water Temp Dewpoint Dewpoint Depression Visibility Wind Speed Wind Dir Waves Ship Positions

Ocean Giant

Owner: Crowley Technical Management, Inc., Jacksonville, FL. More information available from US FCC via Universal Licensing System and Coast Guard Vessel Documentation Center.

Last reported at 2016-Jul-27 14:31 UTC. Time now 2016-Jul-27 15:19 UTC.
Position N 35°53' E 014°46'.

Length 166 m; draft 6.8 m.

Type: Cargo ship. MMSI: 367535950.

Date/timePositionNaut miles runAvg speedWind from/ knotsBaromVisibWave heightAir tempDewpointWater temp
2016-Jul-27 14:31N 35°53' E 014°46'0 0.0
2016-Jul-27 13:31N 35°53' E 014°46'0 0.0
2016-Jul-27 12:31N 35°53' E 014°46'0 0.0
2016-Jul-27 11:31N 35°53' E 014°46'0 0.0
2016-Jul-27 10:31N 35°53' E 014°46'0 0.0
2016-Jul-27 09:31N 35°53' E 014°46'0 0.0
2016-Jul-27 08:31N 35°53' E 014°46'0 0.0
2016-Jul-27 07:31N 35°53' E 014°46'2 2.5
2016-Jul-27 06:33N 35°54' E 014°49'2 0.3
2016-Jul-27 01:11N 35°54' E 014°51'0 0.0
2016-Jul-27 00:32N 35°54' E 014°51'0 0.0
2016-Jul-26 23:32N 35°54' E 014°51'0 0.0
2016-Jul-26 22:29N 35°54' E 014°51'0 0.0
2016-Jul-26 21:32N 35°54' E 014°51'0 0.0
2016-Jul-26 20:32N 35°54' E 014°51'0 0.0
2016-Jul-26 18:11N 35°54' E 014°51'0 0.0
2016-Jul-26 17:23N 35°54' E 014°51'0 0.0
2016-Jul-26 16:29N 35°54' E 014°51'0 0.0
2016-Jul-26 15:32N 35°54' E 014°51'0 0.1
2016-Jul-26 14:32N 35°54' E 014°51'5 5.1
2016-Jul-26 13:33N 35°49' E 014°52'6 6.2
2016-Jul-26 12:33N 35°50' E 014°59'1515.2
2016-Jul-26 11:33N 36°04' E 015°04'404 9.4
2016-Jul-24 16:32N 36°38' E 023°24'1212.6
2016-Jul-24 15:34N 36°49' E 023°32'1512.5
2016-Jul-24 14:24N 37°01' E 023°41'1112.7
2016-Jul-24 13:33N 37°10' E 023°48'6912.5
2016-Jul-24 08:05N 38°02' E 024°45'  

Dump ship's entire track history